sensor_id;sensor_type;location;lat;lon;timestamp;P1;durP1;ratioP1;P2;durP2;ratioP2
15307;SDS011;7755;52.208;6.964;2023-09-19T00:02:14;8.10;;;3.70;;
15307;SDS011;7755;52.208;6.964;2023-09-19T00:06:17;5.60;;;3.70;;
15307;SDS011;7755;52.208;6.964;2023-09-19T00:10:21;7.90;;;3.87;;
15307;SDS011;7755;52.208;6.964;2023-09-19T00:14:25;6.43;;;3.73;;
15307;SDS011;7755;52.208;6.964;2023-09-19T00:18:29;9.40;;;3.50;;
15307;SDS011;7755;52.208;6.964;2023-09-19T00:22:40;7.07;;;4.03;;
15307;SDS011;7755;52.208;6.964;2023-09-19T00:26:46;7.53;;;3.60;;
15307;SDS011;7755;52.208;6.964;2023-09-19T00:30:50;10.13;;;3.70;;
15307;SDS011;7755;52.208;6.964;2023-09-19T00:34:54;9.03;;;3.90;;
15307;SDS011;7755;52.208;6.964;2023-09-19T00:38:57;7.07;;;3.70;;
15307;SDS011;7755;52.208;6.964;2023-09-19T00:43:00;8.23;;;3.80;;
15307;SDS011;7755;52.208;6.964;2023-09-19T00:47:03;8.63;;;3.43;;
15307;SDS011;7755;52.208;6.964;2023-09-19T00:51:08;8.07;;;3.77;;
15307;SDS011;7755;52.208;6.964;2023-09-19T00:55:12;4.87;;;3.50;;
15307;SDS011;7755;52.208;6.964;2023-09-19T00:59:17;5.90;;;3.43;;
15307;SDS011;7755;52.208;6.964;2023-09-19T01:03:20;7.80;;;3.53;;
15307;SDS011;7755;52.208;6.964;2023-09-19T01:07:24;9.60;;;3.47;;
15307;SDS011;7755;52.208;6.964;2023-09-19T01:11:31;7.63;;;3.53;;
15307;SDS011;7755;52.208;6.964;2023-09-19T01:15:46;6.67;;;3.87;;
15307;SDS011;7755;52.208;6.964;2023-09-19T01:20:00;5.93;;;3.70;;
15307;SDS011;7755;52.208;6.964;2023-09-19T01:24:22;11.47;;;3.97;;
15307;SDS011;7755;52.208;6.964;2023-09-19T01:28:44;6.80;;;4.37;;
15307;SDS011;7755;52.208;6.964;2023-09-19T01:33:10;9.97;;;4.40;;
15307;SDS011;7755;52.208;6.964;2023-09-19T01:37:13;10.60;;;4.20;;
15307;SDS011;7755;52.208;6.964;2023-09-19T01:41:21;7.00;;;4.10;;
15307;SDS011;7755;52.208;6.964;2023-09-19T01:45:33;8.63;;;4.17;;
15307;SDS011;7755;52.208;6.964;2023-09-19T01:49:44;7.50;;;3.57;;
15307;SDS011;7755;52.208;6.964;2023-09-19T01:53:55;7.40;;;3.60;;
15307;SDS011;7755;52.208;6.964;2023-09-19T01:58:05;6.27;;;4.00;;
15307;SDS011;7755;52.208;6.964;2023-09-19T02:02:10;7.20;;;3.67;;
15307;SDS011;7755;52.208;6.964;2023-09-19T02:06:15;13.23;;;4.60;;
15307;SDS011;7755;52.208;6.964;2023-09-19T02:10:20;8.07;;;4.10;;
15307;SDS011;7755;52.208;6.964;2023-09-19T02:14:23;7.63;;;3.93;;
15307;SDS011;7755;52.208;6.964;2023-09-19T02:18:26;8.23;;;3.53;;
15307;SDS011;7755;52.208;6.964;2023-09-19T02:22:31;11.60;;;3.73;;
15307;SDS011;7755;52.208;6.964;2023-09-19T02:26:33;8.47;;;3.43;;
15307;SDS011;7755;52.208;6.964;2023-09-19T02:30:37;11.00;;;4.30;;
15307;SDS011;7755;52.208;6.964;2023-09-19T02:34:40;7.47;;;4.07;;
15307;SDS011;7755;52.208;6.964;2023-09-19T02:38:44;8.90;;;4.40;;
15307;SDS011;7755;52.208;6.964;2023-09-19T02:42:47;6.07;;;3.60;;
15307;SDS011;7755;52.208;6.964;2023-09-19T02:46:51;9.10;;;3.70;;
15307;SDS011;7755;52.208;6.964;2023-09-19T02:50:54;8.00;;;3.90;;
15307;SDS011;7755;52.208;6.964;2023-09-19T02:54:58;10.93;;;4.47;;
15307;SDS011;7755;52.208;6.964;2023-09-19T02:59:03;12.13;;;4.60;;
15307;SDS011;7755;52.208;6.964;2023-09-19T03:03:07;8.80;;;4.57;;
15307;SDS011;7755;52.208;6.964;2023-09-19T03:07:11;8.13;;;3.63;;
15307;SDS011;7755;52.208;6.964;2023-09-19T03:11:16;10.80;;;4.00;;
15307;SDS011;7755;52.208;6.964;2023-09-19T03:15:26;9.50;;;4.80;;
15307;SDS011;7755;52.208;6.964;2023-09-19T03:19:30;9.53;;;3.93;;
15307;SDS011;7755;52.208;6.964;2023-09-19T03:23:35;11.00;;;4.57;;
15307;SDS011;7755;52.208;6.964;2023-09-19T03:27:39;6.93;;;3.70;;
15307;SDS011;7755;52.208;6.964;2023-09-19T03:31:43;12.83;;;4.63;;
15307;SDS011;7755;52.208;6.964;2023-09-19T03:35:51;9.77;;;3.93;;
15307;SDS011;7755;52.208;6.964;2023-09-19T03:39:55;8.43;;;4.20;;
15307;SDS011;7755;52.208;6.964;2023-09-19T03:43:59;11.73;;;4.23;;
15307;SDS011;7755;52.208;6.964;2023-09-19T03:48:06;9.60;;;3.63;;
15307;SDS011;7755;52.208;6.964;2023-09-19T03:52:10;13.17;;;3.87;;
15307;SDS011;7755;52.208;6.964;2023-09-19T03:56:13;6.73;;;3.87;;
15307;SDS011;7755;52.208;6.964;2023-09-19T04:00:17;7.00;;;3.87;;
15307;SDS011;7755;52.208;6.964;2023-09-19T04:04:23;8.60;;;4.20;;
15307;SDS011;7755;52.208;6.964;2023-09-19T04:08:27;9.90;;;4.07;;
15307;SDS011;7755;52.208;6.964;2023-09-19T04:12:31;6.40;;;3.47;;
15307;SDS011;7755;52.208;6.964;2023-09-19T04:16:36;10.37;;;3.70;;
15307;SDS011;7755;52.208;6.964;2023-09-19T04:20:40;8.10;;;4.03;;
15307;SDS011;7755;52.208;6.964;2023-09-19T04:24:43;9.63;;;3.63;;
15307;SDS011;7755;52.208;6.964;2023-09-19T04:28:46;9.73;;;3.40;;
15307;SDS011;7755;52.208;6.964;2023-09-19T04:32:50;10.13;;;3.80;;
15307;SDS011;7755;52.208;6.964;2023-09-19T04:36:53;8.53;;;3.57;;
15307;SDS011;7755;52.208;6.964;2023-09-19T04:40:57;7.83;;;3.90;;
15307;SDS011;7755;52.208;6.964;2023-09-19T04:45:00;9.90;;;3.83;;
15307;SDS011;7755;52.208;6.964;2023-09-19T04:49:06;7.57;;;3.67;;
15307;SDS011;7755;52.208;6.964;2023-09-19T04:53:08;8.87;;;3.63;;
15307;SDS011;7755;52.208;6.964;2023-09-19T04:57:11;9.20;;;3.77;;
15307;SDS011;7755;52.208;6.964;2023-09-19T05:01:14;7.53;;;3.60;;
15307;SDS011;7755;52.208;6.964;2023-09-19T05:05:19;8.33;;;3.33;;
15307;SDS011;7755;52.208;6.964;2023-09-19T05:09:24;7.23;;;3.40;;
15307;SDS011;7755;52.208;6.964;2023-09-19T05:13:27;9.10;;;3.87;;
15307;SDS011;7755;52.208;6.964;2023-09-19T05:17:30;10.63;;;4.17;;
15307;SDS011;7755;52.208;6.964;2023-09-19T05:21:35;5.67;;;3.70;;
15307;SDS011;7755;52.208;6.964;2023-09-19T05:25:40;8.37;;;3.33;;
15307;SDS011;7755;52.208;6.964;2023-09-19T05:29:44;8.87;;;3.60;;
15307;SDS011;7755;52.208;6.964;2023-09-19T05:33:47;9.37;;;4.10;;
15307;SDS011;7755;52.208;6.964;2023-09-19T05:37:51;7.63;;;3.30;;
15307;SDS011;7755;52.208;6.964;2023-09-19T05:41:55;9.20;;;4.10;;
15307;SDS011;7755;52.208;6.964;2023-09-19T05:45:59;8.23;;;3.33;;
15307;SDS011;7755;52.208;6.964;2023-09-19T05:50:02;6.97;;;3.40;;
15307;SDS011;7755;52.208;6.964;2023-09-19T05:54:08;7.93;;;3.70;;
15307;SDS011;7755;52.208;6.964;2023-09-19T05:58:12;6.97;;;3.20;;
15307;SDS011;7755;52.208;6.964;2023-09-19T06:02:18;6.80;;;3.10;;
15307;SDS011;7755;52.208;6.964;2023-09-19T06:06:22;8.57;;;3.53;;
15307;SDS011;7755;52.208;6.964;2023-09-19T06:10:27;9.13;;;3.30;;
15307;SDS011;7755;52.208;6.964;2023-09-19T06:14:30;8.17;;;2.97;;
15307;SDS011;7755;52.208;6.964;2023-09-19T06:18:33;7.50;;;3.77;;
15307;SDS011;7755;52.208;6.964;2023-09-19T06:22:36;7.50;;;2.90;;
15307;SDS011;7755;52.208;6.964;2023-09-19T06:26:41;8.63;;;3.33;;
15307;SDS011;7755;52.208;6.964;2023-09-19T06:30:43;8.13;;;3.23;;
15307;SDS011;7755;52.208;6.964;2023-09-19T06:34:51;5.50;;;3.30;;
15307;SDS011;7755;52.208;6.964;2023-09-19T06:38:55;9.23;;;3.80;;
15307;SDS011;7755;52.208;6.964;2023-09-19T06:42:59;7.40;;;3.17;;
15307;SDS011;7755;52.208;6.964;2023-09-19T06:47:03;7.73;;;3.63;;
15307;SDS011;7755;52.208;6.964;2023-09-19T06:51:08;5.50;;;3.10;;
15307;SDS011;7755;52.208;6.964;2023-09-19T06:55:11;7.50;;;3.73;;
15307;SDS011;7755;52.208;6.964;2023-09-19T06:59:16;9.23;;;3.33;;
15307;SDS011;7755;52.208;6.964;2023-09-19T07:03:18;6.57;;;3.20;;
15307;SDS011;7755;52.208;6.964;2023-09-19T07:07:23;7.40;;;3.63;;
15307;SDS011;7755;52.208;6.964;2023-09-19T07:11:25;9.47;;;3.60;;
15307;SDS011;7755;52.208;6.964;2023-09-19T07:15:32;7.23;;;3.70;;
15307;SDS011;7755;52.208;6.964;2023-09-19T07:19:37;8.60;;;4.07;;
15307;SDS011;7755;52.208;6.964;2023-09-19T07:23:40;8.00;;;3.60;;
15307;SDS011;7755;52.208;6.964;2023-09-19T07:27:43;10.00;;;3.50;;
15307;SDS011;7755;52.208;6.964;2023-09-19T07:31:47;10.20;;;3.10;;
15307;SDS011;7755;52.208;6.964;2023-09-19T07:35:51;11.03;;;3.80;;
15307;SDS011;7755;52.208;6.964;2023-09-19T07:39:55;7.53;;;2.90;;
15307;SDS011;7755;52.208;6.964;2023-09-19T07:43:58;6.77;;;3.10;;
15307;SDS011;7755;52.208;6.964;2023-09-19T07:48:02;9.73;;;3.47;;
15307;SDS011;7755;52.208;6.964;2023-09-19T07:52:08;9.83;;;3.03;;
15307;SDS011;7755;52.208;6.964;2023-09-19T07:56:11;8.60;;;3.77;;
15307;SDS011;7755;52.208;6.964;2023-09-19T08:00:15;9.77;;;3.50;;
15307;SDS011;7755;52.208;6.964;2023-09-19T08:04:19;10.37;;;4.27;;
15307;SDS011;7755;52.208;6.964;2023-09-19T08:08:22;10.63;;;3.67;;
15307;SDS011;7755;52.208;6.964;2023-09-19T08:12:25;11.77;;;4.10;;
15307;SDS011;7755;52.208;6.964;2023-09-19T08:16:28;10.93;;;3.90;;
15307;SDS011;7755;52.208;6.964;2023-09-19T08:20:32;8.80;;;3.73;;
15307;SDS011;7755;52.208;6.964;2023-09-19T08:24:37;8.17;;;3.90;;
15307;SDS011;7755;52.208;6.964;2023-09-19T08:28:40;9.97;;;3.80;;
15307;SDS011;7755;52.208;6.964;2023-09-19T08:32:43;7.17;;;3.70;;
15307;SDS011;7755;52.208;6.964;2023-09-19T08:36:47;9.47;;;3.67;;
15307;SDS011;7755;52.208;6.964;2023-09-19T08:40:50;7.30;;;3.17;;
15307;SDS011;7755;52.208;6.964;2023-09-19T08:44:53;7.73;;;3.60;;
15307;SDS011;7755;52.208;6.964;2023-09-19T08:49:01;5.13;;;3.03;;
15307;SDS011;7755;52.208;6.964;2023-09-19T08:53:09;7.03;;;3.50;;
15307;SDS011;7755;52.208;6.964;2023-09-19T08:57:17;5.23;;;3.23;;
15307;SDS011;7755;52.208;6.964;2023-09-19T09:01:23;6.77;;;3.47;;
15307;SDS011;7755;52.208;6.964;2023-09-19T09:05:29;7.73;;;3.87;;
15307;SDS011;7755;52.208;6.964;2023-09-19T09:09:35;10.27;;;3.00;;
15307;SDS011;7755;52.208;6.964;2023-09-19T09:13:38;9.40;;;3.43;;
15307;SDS011;7755;52.208;6.964;2023-09-19T09:17:43;7.00;;;3.53;;
15307;SDS011;7755;52.208;6.964;2023-09-19T09:21:46;9.17;;;3.60;;
15307;SDS011;7755;52.208;6.964;2023-09-19T09:25:51;8.03;;;3.40;;
15307;SDS011;7755;52.208;6.964;2023-09-19T09:29:58;9.83;;;3.77;;
15307;SDS011;7755;52.208;6.964;2023-09-19T09:34:01;8.93;;;3.30;;
15307;SDS011;7755;52.208;6.964;2023-09-19T09:38:04;9.93;;;3.70;;
15307;SDS011;7755;52.208;6.964;2023-09-19T09:42:13;7.50;;;3.90;;
15307;SDS011;7755;52.208;6.964;2023-09-19T09:46:34;11.30;;;4.13;;
15307;SDS011;7755;52.208;6.964;2023-09-19T09:51:00;8.93;;;3.80;;
15307;SDS011;7755;52.208;6.964;2023-09-19T09:55:04;9.73;;;3.73;;
15307;SDS011;7755;52.208;6.964;2023-09-19T09:59:10;8.07;;;3.27;;
15307;SDS011;7755;52.208;6.964;2023-09-19T10:03:19;6.33;;;3.77;;
15307;SDS011;7755;52.208;6.964;2023-09-19T10:07:25;9.67;;;4.20;;
15307;SDS011;7755;52.208;6.964;2023-09-19T10:11:33;8.70;;;3.43;;
15307;SDS011;7755;52.208;6.964;2023-09-19T10:15:42;9.17;;;4.77;;
15307;SDS011;7755;52.208;6.964;2023-09-19T10:19:52;6.77;;;3.83;;
15307;SDS011;7755;52.208;6.964;2023-09-19T10:23:59;7.50;;;3.53;;
15307;SDS011;7755;52.208;6.964;2023-09-19T10:28:05;9.53;;;3.93;;
15307;SDS011;7755;52.208;6.964;2023-09-19T10:32:15;6.23;;;3.63;;
15307;SDS011;7755;52.208;6.964;2023-09-19T10:36:21;10.30;;;4.63;;
15307;SDS011;7755;52.208;6.964;2023-09-19T10:40:27;6.20;;;3.23;;
15307;SDS011;7755;52.208;6.964;2023-09-19T10:44:33;7.57;;;3.13;;
15307;SDS011;7755;52.208;6.964;2023-09-19T10:48:40;5.50;;;3.10;;
15307;SDS011;7755;52.208;6.964;2023-09-19T10:52:45;5.97;;;3.03;;
15307;SDS011;7755;52.208;6.964;2023-09-19T10:56:51;9.43;;;3.67;;
15307;SDS011;7755;52.208;6.964;2023-09-19T11:00:56;8.40;;;3.77;;
15307;SDS011;7755;52.208;6.964;2023-09-19T11:05:17;5.70;;;3.07;;
15307;SDS011;7755;52.208;6.964;2023-09-19T11:09:20;8.83;;;3.40;;
15307;SDS011;7755;52.208;6.964;2023-09-19T11:13:27;7.40;;;3.07;;
15307;SDS011;7755;52.208;6.964;2023-09-19T11:17:33;7.40;;;3.10;;
15307;SDS011;7755;52.208;6.964;2023-09-19T11:21:42;6.43;;;3.00;;
15307;SDS011;7755;52.208;6.964;2023-09-19T11:25:55;6.07;;;3.00;;
15307;SDS011;7755;52.208;6.964;2023-09-19T11:34:44;6.73;;;3.50;;
15307;SDS011;7755;52.208;6.964;2023-09-19T11:39:00;8.83;;;3.50;;
15307;SDS011;7755;52.208;6.964;2023-09-19T11:43:28;4.87;;;3.20;;
15307;SDS011;7755;52.208;6.964;2023-09-19T11:47:42;7.63;;;3.30;;
15307;SDS011;7755;52.208;6.964;2023-09-19T11:51:48;8.87;;;3.13;;
15307;SDS011;7755;52.208;6.964;2023-09-19T11:55:54;5.50;;;2.93;;
15307;SDS011;7755;52.208;6.964;2023-09-19T11:59:57;8.33;;;3.50;;
15307;SDS011;7755;52.208;6.964;2023-09-19T12:04:01;4.57;;;3.10;;
15307;SDS011;7755;52.208;6.964;2023-09-19T12:08:07;5.80;;;2.93;;
15307;SDS011;7755;52.208;6.964;2023-09-19T12:12:11;8.67;;;3.10;;
15307;SDS011;7755;52.208;6.964;2023-09-19T12:16:22;5.70;;;3.37;;
15307;SDS011;7755;52.208;6.964;2023-09-19T12:20:25;6.67;;;3.10;;
15307;SDS011;7755;52.208;6.964;2023-09-19T12:24:51;6.63;;;2.70;;
15307;SDS011;7755;52.208;6.964;2023-09-19T12:28:57;5.83;;;2.57;;
15307;SDS011;7755;52.208;6.964;2023-09-19T12:33:00;8.20;;;2.80;;
15307;SDS011;7755;52.208;6.964;2023-09-19T12:37:05;6.40;;;2.70;;
15307;SDS011;7755;52.208;6.964;2023-09-19T12:41:13;5.33;;;2.77;;
15307;SDS011;7755;52.208;6.964;2023-09-19T12:45:17;6.73;;;3.00;;
15307;SDS011;7755;52.208;6.964;2023-09-19T12:49:20;6.37;;;2.93;;
15307;SDS011;7755;52.208;6.964;2023-09-19T12:53:27;4.73;;;2.77;;
15307;SDS011;7755;52.208;6.964;2023-09-19T12:57:30;4.13;;;2.10;;
15307;SDS011;7755;52.208;6.964;2023-09-19T13:01:37;7.40;;;3.03;;
15307;SDS011;7755;52.208;6.964;2023-09-19T13:05:48;6.27;;;2.97;;
15307;SDS011;7755;52.208;6.964;2023-09-19T13:10:02;8.10;;;2.70;;
15307;SDS011;7755;52.208;6.964;2023-09-19T13:14:15;7.10;;;2.33;;
15307;SDS011;7755;52.208;6.964;2023-09-19T13:18:21;7.17;;;3.03;;
15307;SDS011;7755;52.208;6.964;2023-09-19T13:22:37;4.80;;;2.10;;
15307;SDS011;7755;52.208;6.964;2023-09-19T13:26:42;5.53;;;3.00;;
15307;SDS011;7755;52.208;6.964;2023-09-19T13:30:45;6.53;;;2.90;;
15307;SDS011;7755;52.208;6.964;2023-09-19T13:34:50;3.77;;;2.60;;
15307;SDS011;7755;52.208;6.964;2023-09-19T13:38:53;3.10;;;2.10;;
15307;SDS011;7755;52.208;6.964;2023-09-19T13:42:56;5.83;;;2.93;;
15307;SDS011;7755;52.208;6.964;2023-09-19T13:46:59;6.90;;;2.60;;
15307;SDS011;7755;52.208;6.964;2023-09-19T13:51:05;4.43;;;2.60;;
15307;SDS011;7755;52.208;6.964;2023-09-19T13:55:08;5.30;;;2.27;;
15307;SDS011;7755;52.208;6.964;2023-09-19T13:59:11;5.20;;;2.53;;
15307;SDS011;7755;52.208;6.964;2023-09-19T14:03:13;3.33;;;2.03;;
15307;SDS011;7755;52.208;6.964;2023-09-19T14:07:18;5.60;;;2.43;;
15307;SDS011;7755;52.208;6.964;2023-09-19T14:11:21;5.53;;;2.37;;
15307;SDS011;7755;52.208;6.964;2023-09-19T14:15:24;5.03;;;2.30;;
15307;SDS011;7755;52.208;6.964;2023-09-19T14:19:30;3.17;;;2.00;;
15307;SDS011;7755;52.208;6.964;2023-09-19T14:23:35;3.73;;;2.20;;
15307;SDS011;7755;52.208;6.964;2023-09-19T14:27:38;3.23;;;1.73;;
15307;SDS011;7755;52.208;6.964;2023-09-19T14:31:42;4.57;;;2.13;;
15307;SDS011;7755;52.208;6.964;2023-09-19T14:35:45;2.73;;;2.20;;
15307;SDS011;7755;52.208;6.964;2023-09-19T14:39:49;4.60;;;1.80;;
15307;SDS011;7755;52.208;6.964;2023-09-19T14:43:52;5.83;;;2.27;;
15307;SDS011;7755;52.208;6.964;2023-09-19T14:47:56;4.87;;;1.70;;
15307;SDS011;7755;52.208;6.964;2023-09-19T14:51:59;2.77;;;1.60;;
15307;SDS011;7755;52.208;6.964;2023-09-19T14:56:07;3.80;;;2.13;;
15307;SDS011;7755;52.208;6.964;2023-09-19T15:00:11;3.00;;;1.70;;
15307;SDS011;7755;52.208;6.964;2023-09-19T15:04:15;2.93;;;1.67;;
15307;SDS011;7755;52.208;6.964;2023-09-19T15:08:18;5.93;;;1.80;;
15307;SDS011;7755;52.208;6.964;2023-09-19T15:12:22;5.47;;;2.00;;
15307;SDS011;7755;52.208;6.964;2023-09-19T15:16:25;2.70;;;1.60;;
15307;SDS011;7755;52.208;6.964;2023-09-19T15:20:28;2.73;;;1.60;;
15307;SDS011;7755;52.208;6.964;2023-09-19T15:24:32;6.23;;;1.87;;
15307;SDS011;7755;52.208;6.964;2023-09-19T15:28:36;3.10;;;1.47;;
15307;SDS011;7755;52.208;6.964;2023-09-19T15:32:39;5.30;;;1.70;;
15307;SDS011;7755;52.208;6.964;2023-09-19T15:36:43;4.90;;;1.97;;
15307;SDS011;7755;52.208;6.964;2023-09-19T15:40:47;3.57;;;1.70;;
15307;SDS011;7755;52.208;6.964;2023-09-19T15:44:51;2.37;;;1.50;;
15307;SDS011;7755;52.208;6.964;2023-09-19T15:48:54;4.73;;;1.57;;
15307;SDS011;7755;52.208;6.964;2023-09-19T15:52:57;4.50;;;1.73;;
15307;SDS011;7755;52.208;6.964;2023-09-19T15:56:59;3.07;;;1.77;;
15307;SDS011;7755;52.208;6.964;2023-09-19T16:01:05;2.07;;;1.47;;
15307;SDS011;7755;52.208;6.964;2023-09-19T16:05:10;3.53;;;2.00;;
15307;SDS011;7755;52.208;6.964;2023-09-19T16:09:13;3.37;;;1.90;;
15307;SDS011;7755;52.208;6.964;2023-09-19T16:13:17;2.03;;;1.57;;
15307;SDS011;7755;52.208;6.964;2023-09-19T16:17:21;5.67;;;1.97;;
15307;SDS011;7755;52.208;6.964;2023-09-19T16:21:24;3.03;;;1.60;;
15307;SDS011;7755;52.208;6.964;2023-09-19T16:25:28;5.00;;;1.73;;
15307;SDS011;7755;52.208;6.964;2023-09-19T16:29:31;3.50;;;1.90;;
15307;SDS011;7755;52.208;6.964;2023-09-19T16:33:35;4.90;;;1.70;;
15307;SDS011;7755;52.208;6.964;2023-09-19T16:37:39;3.43;;;1.80;;
15307;SDS011;7755;52.208;6.964;2023-09-19T16:41:42;2.63;;;1.90;;
15307;SDS011;7755;52.208;6.964;2023-09-19T16:45:51;2.60;;;1.60;;
15307;SDS011;7755;52.208;6.964;2023-09-19T16:49:56;2.27;;;1.73;;
15307;SDS011;7755;52.208;6.964;2023-09-19T16:54:00;3.57;;;1.40;;
15307;SDS011;7755;52.208;6.964;2023-09-19T16:58:05;3.00;;;2.00;;
15307;SDS011;7755;52.208;6.964;2023-09-19T17:02:08;3.00;;;1.67;;
15307;SDS011;7755;52.208;6.964;2023-09-19T17:06:13;3.17;;;1.57;;
15307;SDS011;7755;52.208;6.964;2023-09-19T17:10:17;5.27;;;1.60;;
15307;SDS011;7755;52.208;6.964;2023-09-19T17:14:19;7.03;;;2.10;;
15307;SDS011;7755;52.208;6.964;2023-09-19T17:18:22;3.87;;;1.80;;
15307;SDS011;7755;52.208;6.964;2023-09-19T17:22:26;3.43;;;1.90;;
15307;SDS011;7755;52.208;6.964;2023-09-19T17:26:29;2.93;;;1.57;;
15307;SDS011;7755;52.208;6.964;2023-09-19T17:30:35;3.07;;;1.90;;
15307;SDS011;7755;52.208;6.964;2023-09-19T17:34:40;3.67;;;2.00;;
15307;SDS011;7755;52.208;6.964;2023-09-19T17:38:45;3.67;;;1.80;;
15307;SDS011;7755;52.208;6.964;2023-09-19T17:42:49;5.90;;;2.00;;
15307;SDS011;7755;52.208;6.964;2023-09-19T17:46:52;4.67;;;1.70;;
15307;SDS011;7755;52.208;6.964;2023-09-19T17:50:58;3.47;;;1.70;;
15307;SDS011;7755;52.208;6.964;2023-09-19T17:55:04;5.73;;;1.80;;
15307;SDS011;7755;52.208;6.964;2023-09-19T17:59:07;2.00;;;1.77;;
15307;SDS011;7755;52.208;6.964;2023-09-19T18:03:10;3.23;;;1.93;;
15307;SDS011;7755;52.208;6.964;2023-09-19T18:07:14;3.57;;;1.80;;
15307;SDS011;7755;52.208;6.964;2023-09-19T18:11:18;4.10;;;1.80;;
15307;SDS011;7755;52.208;6.964;2023-09-19T18:15:25;3.20;;;1.80;;
15307;SDS011;7755;52.208;6.964;2023-09-19T18:19:34;2.20;;;1.63;;
15307;SDS011;7755;52.208;6.964;2023-09-19T18:23:36;4.33;;;2.50;;
15307;SDS011;7755;52.208;6.964;2023-09-19T18:27:41;3.30;;;2.23;;
15307;SDS011;7755;52.208;6.964;2023-09-19T18:31:43;2.83;;;1.80;;
15307;SDS011;7755;52.208;6.964;2023-09-19T18:35:46;6.23;;;2.20;;
15307;SDS011;7755;52.208;6.964;2023-09-19T18:39:49;2.87;;;1.90;;
15307;SDS011;7755;52.208;6.964;2023-09-19T18:43:53;3.47;;;2.00;;
15307;SDS011;7755;52.208;6.964;2023-09-19T18:47:57;4.60;;;2.20;;
15307;SDS011;7755;52.208;6.964;2023-09-19T18:52:00;2.83;;;2.13;;
15307;SDS011;7755;52.208;6.964;2023-09-19T18:56:04;2.87;;;1.80;;
15307;SDS011;7755;52.208;6.964;2023-09-19T19:00:09;7.60;;;2.27;;
15307;SDS011;7755;52.208;6.964;2023-09-19T19:04:16;3.23;;;2.10;;
15307;SDS011;7755;52.208;6.964;2023-09-19T19:08:20;3.60;;;2.10;;
15307;SDS011;7755;52.208;6.964;2023-09-19T19:12:22;3.60;;;2.33;;
15307;SDS011;7755;52.208;6.964;2023-09-19T19:16:27;3.87;;;2.30;;
15307;SDS011;7755;52.208;6.964;2023-09-19T19:20:31;4.67;;;2.27;;
15307;SDS011;7755;52.208;6.964;2023-09-19T19:24:34;5.23;;;2.40;;
15307;SDS011;7755;52.208;6.964;2023-09-19T19:28:37;3.37;;;2.00;;
15307;SDS011;7755;52.208;6.964;2023-09-19T19:32:43;5.40;;;2.40;;
15307;SDS011;7755;52.208;6.964;2023-09-19T19:36:46;5.53;;;2.20;;
15307;SDS011;7755;52.208;6.964;2023-09-19T19:40:56;4.93;;;2.57;;
15307;SDS011;7755;52.208;6.964;2023-09-19T19:44:59;3.57;;;2.30;;
15307;SDS011;7755;52.208;6.964;2023-09-19T19:49:04;3.37;;;2.53;;
15307;SDS011;7755;52.208;6.964;2023-09-19T19:53:09;3.73;;;2.40;;
15307;SDS011;7755;52.208;6.964;2023-09-19T19:57:12;3.33;;;2.10;;
15307;SDS011;7755;52.208;6.964;2023-09-19T20:01:15;2.70;;;2.47;;
15307;SDS011;7755;52.208;6.964;2023-09-19T20:05:19;4.50;;;2.50;;
15307;SDS011;7755;52.208;6.964;2023-09-19T20:09:22;4.27;;;2.30;;
15307;SDS011;7755;52.208;6.964;2023-09-19T20:13:25;4.73;;;2.30;;
15307;SDS011;7755;52.208;6.964;2023-09-19T20:17:28;4.90;;;2.27;;
15307;SDS011;7755;52.208;6.964;2023-09-19T20:21:32;5.53;;;2.70;;
15307;SDS011;7755;52.208;6.964;2023-09-19T20:25:36;4.67;;;2.50;;
15307;SDS011;7755;52.208;6.964;2023-09-19T20:29:39;4.70;;;2.33;;
15307;SDS011;7755;52.208;6.964;2023-09-19T20:33:43;4.80;;;2.30;;
15307;SDS011;7755;52.208;6.964;2023-09-19T20:37:47;4.03;;;2.40;;
15307;SDS011;7755;52.208;6.964;2023-09-19T20:41:51;4.43;;;2.33;;
15307;SDS011;7755;52.208;6.964;2023-09-19T20:45:54;2.77;;;2.20;;
15307;SDS011;7755;52.208;6.964;2023-09-19T20:49:57;3.27;;;2.33;;
15307;SDS011;7755;52.208;6.964;2023-09-19T20:54:01;6.03;;;2.90;;
15307;SDS011;7755;52.208;6.964;2023-09-19T20:58:04;4.73;;;2.50;;
15307;SDS011;7755;52.208;6.964;2023-09-19T21:02:07;3.90;;;2.50;;
15307;SDS011;7755;52.208;6.964;2023-09-19T21:06:11;5.27;;;2.70;;
15307;SDS011;7755;52.208;6.964;2023-09-19T21:10:16;5.73;;;2.10;;
15307;SDS011;7755;52.208;6.964;2023-09-19T21:14:19;3.37;;;2.10;;
15307;SDS011;7755;52.208;6.964;2023-09-19T21:18:22;5.90;;;2.67;;
15307;SDS011;7755;52.208;6.964;2023-09-19T21:22:26;5.30;;;2.30;;
15307;SDS011;7755;52.208;6.964;2023-09-19T21:26:31;4.27;;;2.90;;
15307;SDS011;7755;52.208;6.964;2023-09-19T21:30:34;5.80;;;2.70;;
15307;SDS011;7755;52.208;6.964;2023-09-19T21:34:37;4.97;;;2.77;;
15307;SDS011;7755;52.208;6.964;2023-09-19T21:38:40;4.43;;;2.53;;
15307;SDS011;7755;52.208;6.964;2023-09-19T21:42:44;4.63;;;2.40;;
15307;SDS011;7755;52.208;6.964;2023-09-19T21:46:47;7.10;;;2.73;;
15307;SDS011;7755;52.208;6.964;2023-09-19T21:50:53;3.73;;;2.40;;
15307;SDS011;7755;52.208;6.964;2023-09-19T21:54:57;3.27;;;2.23;;
15307;SDS011;7755;52.208;6.964;2023-09-19T21:59:02;4.77;;;2.30;;
15307;SDS011;7755;52.208;6.964;2023-09-19T22:03:05;7.77;;;2.60;;
15307;SDS011;7755;52.208;6.964;2023-09-19T22:07:09;7.03;;;2.73;;
15307;SDS011;7755;52.208;6.964;2023-09-19T22:11:11;3.83;;;2.80;;
15307;SDS011;7755;52.208;6.964;2023-09-19T22:15:18;4.93;;;2.67;;
15307;SDS011;7755;52.208;6.964;2023-09-19T22:19:24;3.37;;;2.53;;
15307;SDS011;7755;52.208;6.964;2023-09-19T22:23:27;3.53;;;2.90;;
15307;SDS011;7755;52.208;6.964;2023-09-19T22:27:33;5.63;;;2.53;;
15307;SDS011;7755;52.208;6.964;2023-09-19T22:31:37;5.33;;;2.10;;
15307;SDS011;7755;52.208;6.964;2023-09-19T22:35:43;6.20;;;2.93;;
15307;SDS011;7755;52.208;6.964;2023-09-19T22:39:48;5.37;;;2.50;;
15307;SDS011;7755;52.208;6.964;2023-09-19T22:43:52;3.83;;;2.10;;
15307;SDS011;7755;52.208;6.964;2023-09-19T22:47:59;6.47;;;2.83;;
15307;SDS011;7755;52.208;6.964;2023-09-19T22:52:01;4.97;;;2.77;;
15307;SDS011;7755;52.208;6.964;2023-09-19T22:56:05;4.33;;;2.90;;
15307;SDS011;7755;52.208;6.964;2023-09-19T23:00:12;3.60;;;2.67;;
15307;SDS011;7755;52.208;6.964;2023-09-19T23:04:19;4.43;;;2.63;;
15307;SDS011;7755;52.208;6.964;2023-09-19T23:08:23;4.57;;;2.83;;
15307;SDS011;7755;52.208;6.964;2023-09-19T23:12:26;5.40;;;2.63;;
15307;SDS011;7755;52.208;6.964;2023-09-19T23:16:29;5.93;;;3.10;;
15307;SDS011;7755;52.208;6.964;2023-09-19T23:20:35;5.33;;;2.83;;
15307;SDS011;7755;52.208;6.964;2023-09-19T23:24:40;4.53;;;2.67;;
15307;SDS011;7755;52.208;6.964;2023-09-19T23:28:43;6.70;;;2.53;;
15307;SDS011;7755;52.208;6.964;2023-09-19T23:32:49;4.00;;;2.80;;
15307;SDS011;7755;52.208;6.964;2023-09-19T23:36:54;4.23;;;2.63;;
15307;SDS011;7755;52.208;6.964;2023-09-19T23:40:57;5.13;;;2.63;;
15307;SDS011;7755;52.208;6.964;2023-09-19T23:45:00;4.83;;;2.63;;
15307;SDS011;7755;52.208;6.964;2023-09-19T23:49:03;5.17;;;2.80;;
15307;SDS011;7755;52.208;6.964;2023-09-19T23:53:10;4.80;;;2.90;;
15307;SDS011;7755;52.208;6.964;2023-09-19T23:57:13;4.37;;;2.93;;
